createdAt,value
2023-05-19T00:00:31.927Z,51.52
2023-05-19T00:03:00.655Z,52.03
2023-05-19T00:05:30.696Z,52.17
2023-05-19T00:07:59.154Z,52.04
2023-05-19T00:10:31.643Z,52.85
2023-05-19T00:13:00.586Z,52.36
2023-05-19T00:15:28.352Z,53.07
2023-05-19T00:17:56.018Z,53.90
2023-05-19T00:20:23.625Z,54.15
2023-05-19T00:22:51.648Z,55.25
2023-05-19T00:25:19.509Z,54.17
2023-05-19T00:27:47.065Z,53.89
2023-05-19T00:30:14.901Z,53.53
2023-05-19T00:32:42.493Z,52.62
2023-05-19T00:35:10.157Z,52.42
2023-05-19T00:37:37.934Z,52.26
2023-05-19T00:40:06.709Z,53.85
2023-05-19T00:42:35.000Z,55.38
2023-05-19T00:45:02.617Z,53.15
2023-05-19T00:47:31.139Z,52.07
2023-05-19T00:49:59.136Z,52.29
2023-05-19T00:52:27.638Z,51.87
2023-05-19T00:54:55.447Z,50.98
2023-05-19T00:57:23.089Z,50.59
2023-05-19T00:59:50.643Z,51.00
2023-05-19T01:02:18.279Z,50.30
2023-05-19T01:04:45.846Z,50.46
2023-05-19T01:07:18.801Z,50.17
2023-05-19T01:09:46.467Z,50.04
2023-05-19T01:12:14.110Z,49.88
2023-05-19T01:14:42.427Z,49.83
2023-05-19T01:17:30.315Z,49.97
2023-05-19T01:20:06.910Z,49.88
2023-05-19T01:22:43.522Z,49.89
2023-05-19T01:25:33.893Z,50.31
2023-05-19T01:28:10.388Z,51.07
2023-05-19T01:30:41.631Z,51.50
2023-05-19T01:33:11.751Z,51.99
2023-05-19T01:35:40.142Z,51.99
2023-05-19T01:38:09.090Z,52.30
2023-05-19T01:40:37.910Z,52.36
2023-05-19T01:43:05.551Z,52.61
2023-05-19T01:45:33.637Z,52.98
2023-05-19T01:48:02.779Z,53.24
2023-05-19T01:50:30.924Z,53.69
2023-05-19T01:52:58.662Z,53.89
2023-05-19T01:55:26.090Z,54.22
2023-05-19T01:58:31.293Z,54.37
2023-05-19T02:01:31.184Z,54.54
2023-05-19T02:04:04.849Z,54.52
2023-05-19T02:06:50.459Z,54.76
2023-05-19T02:09:39.944Z,55.14
2023-05-19T02:12:10.399Z,55.41
2023-05-19T02:14:46.517Z,55.54
2023-05-19T02:17:15.937Z,55.61
2023-05-19T02:19:43.714Z,55.66
2023-05-19T02:22:11.285Z,55.95
2023-05-19T02:24:39.521Z,56.31
2023-05-19T02:27:07.126Z,56.34
2023-05-19T02:29:34.838Z,56.47
2023-05-19T02:32:02.600Z,56.70
2023-05-19T02:34:30.706Z,57.07
2023-05-19T02:36:58.252Z,56.93
2023-05-19T02:39:26.489Z,57.12
2023-05-19T02:41:54.171Z,57.98
2023-05-19T02:44:21.909Z,57.70
2023-05-19T02:46:49.790Z,58.21
2023-05-19T02:49:17.425Z,58.07
2023-05-19T02:51:45.340Z,57.40
2023-05-19T02:54:12.954Z,58.09
2023-05-19T02:56:40.593Z,58.28
2023-05-19T02:59:08.142Z,58.46
2023-05-19T03:01:37.822Z,58.34
2023-05-19T03:04:05.637Z,58.58
2023-05-19T03:06:33.344Z,58.60
2023-05-19T03:09:01.191Z,59.08
2023-05-19T03:11:30.994Z,59.17
2023-05-19T03:13:58.650Z,59.06
2023-05-19T03:16:28.157Z,59.53
2023-05-19T03:18:56.003Z,59.90
2023-05-19T03:21:23.549Z,59.03
2023-05-19T03:23:51.357Z,59.29
2023-05-19T03:26:20.150Z,59.84
2023-05-19T03:28:47.696Z,59.57
2023-05-19T03:31:16.454Z,58.92
2023-05-19T03:33:44.223Z,59.05
2023-05-19T03:36:12.781Z,58.50
2023-05-19T03:38:40.636Z,58.76
2023-05-19T03:41:08.356Z,59.23
2023-05-19T03:43:36.290Z,59.01
2023-05-19T03:46:06.110Z,57.93
2023-05-19T03:48:52.355Z,57.13
2023-05-19T03:51:30.149Z,56.91
2023-05-19T03:54:06.116Z,56.24
2023-05-19T03:56:33.623Z,56.69
2023-05-19T03:59:01.148Z,57.13
2023-05-19T04:01:28.965Z,56.09
2023-05-19T04:03:58.257Z,56.23
2023-05-19T04:06:25.906Z,56.08
2023-05-19T04:08:54.951Z,56.27
2023-05-19T04:11:22.488Z,55.31
2023-05-19T04:13:50.062Z,55.46
2023-05-19T04:16:17.773Z,54.79
2023-05-19T04:18:46.530Z,54.89
2023-05-19T04:21:14.426Z,54.94
2023-05-19T04:23:41.999Z,55.22
2023-05-19T04:26:09.604Z,54.94
2023-05-19T04:28:40.087Z,54.78
2023-05-19T04:31:11.255Z,54.80
2023-05-19T04:33:39.434Z,55.14
2023-05-19T04:36:10.531Z,53.99
2023-05-19T04:38:40.488Z,54.19
2023-05-19T04:41:10.692Z,54.79
2023-05-19T04:43:44.547Z,54.37
2023-05-19T04:46:14.153Z,54.35
2023-05-19T04:48:44.086Z,53.55
2023-05-19T04:51:14.435Z,54.19
2023-05-19T04:53:42.663Z,54.63
2023-05-19T04:56:15.375Z,54.24
2023-05-19T04:58:44.833Z,53.99
2023-05-19T05:01:13.980Z,54.06
2023-05-19T05:03:42.415Z,53.95
2023-05-19T05:06:11.809Z,52.78
2023-05-19T05:08:41.261Z,53.27
2023-05-19T05:11:09.625Z,52.97
2023-05-19T05:13:37.723Z,52.11
2023-05-19T05:16:06.586Z,52.37
2023-05-19T05:18:35.169Z,52.05
2023-05-19T05:21:06.147Z,51.53
2023-05-19T05:23:35.585Z,51.72
2023-05-19T05:26:07.828Z,51.20
2023-05-19T05:28:35.493Z,51.38
2023-05-19T05:31:03.300Z,50.92
2023-05-19T05:33:32.429Z,50.99
2023-05-19T05:36:00.065Z,50.27
2023-05-19T05:38:29.930Z,50.35
2023-05-19T05:40:57.735Z,49.62
2023-05-19T05:43:25.857Z,49.62
2023-05-19T05:45:58.692Z,48.31
2023-05-19T05:48:26.880Z,48.42
2023-05-19T05:50:54.763Z,48.97
2023-05-19T05:53:26.374Z,48.71
2023-05-19T05:55:55.686Z,49.26
2023-05-19T05:58:28.704Z,48.57
2023-05-19T06:00:57.799Z,47.85
2023-05-19T06:03:26.864Z,48.38
2023-05-19T06:05:56.389Z,48.32
2023-05-19T06:08:23.842Z,48.35
2023-05-19T06:10:51.401Z,48.00
2023-05-19T06:13:22.678Z,47.62
2023-05-19T06:15:51.063Z,47.24
2023-05-19T06:18:24.652Z,47.23
2023-05-19T06:20:53.414Z,47.10
2023-05-19T06:23:21.453Z,46.77
2023-05-19T06:25:49.173Z,45.24
2023-05-19T06:28:17.053Z,45.54
2023-05-19T06:30:45.345Z,46.05
2023-05-19T06:33:39.212Z,45.67
2023-05-19T06:36:08.522Z,46.19
2023-05-19T06:38:38.050Z,45.04
2023-05-19T06:41:05.780Z,45.56
2023-05-19T06:43:33.513Z,45.80
2023-05-19T06:46:03.975Z,45.21
2023-05-19T06:48:33.364Z,44.79
2023-05-19T06:51:00.997Z,44.36
2023-05-19T06:53:28.490Z,44.21
2023-05-19T06:55:59.976Z,45.08
2023-05-19T06:58:32.609Z,44.87
2023-05-19T07:01:02.562Z,43.91
2023-05-19T07:03:36.589Z,43.10
2023-05-19T07:06:05.640Z,42.55
2023-05-19T07:08:35.330Z,43.71
2023-05-19T07:11:04.141Z,44.01
2023-05-19T07:13:33.001Z,43.25
2023-05-19T07:16:00.626Z,42.27
2023-05-19T07:18:32.707Z,43.15
2023-05-19T07:21:00.224Z,43.65
2023-05-19T07:23:28.310Z,41.90
2023-05-19T07:25:56.736Z,41.55
2023-05-19T07:28:24.403Z,39.99
2023-05-19T07:30:52.063Z,41.22
2023-05-19T07:33:19.635Z,40.78
2023-05-19T07:35:47.673Z,40.77
2023-05-19T07:38:15.710Z,40.86
2023-05-19T07:40:43.146Z,39.48
2023-05-19T07:43:11.465Z,38.18
2023-05-19T07:45:39.015Z,39.09
2023-05-19T07:48:06.509Z,38.82
2023-05-19T07:50:34.289Z,36.98
2023-05-19T07:53:01.851Z,37.92
2023-05-19T07:55:29.386Z,37.74
2023-05-19T07:57:57.340Z,37.96
2023-05-19T08:00:25.422Z,37.92
2023-05-19T08:02:53.355Z,37.64
2023-05-19T08:05:20.919Z,36.81
2023-05-19T08:07:48.353Z,37.99
2023-05-19T08:10:16.427Z,36.39
2023-05-19T08:12:44.351Z,36.53
2023-05-19T08:15:11.864Z,36.20
2023-05-19T08:17:39.519Z,35.72
2023-05-19T08:20:09.011Z,34.73
2023-05-19T08:22:36.922Z,35.15
2023-05-19T08:25:07.715Z,35.22
2023-05-19T08:27:35.261Z,33.72
2023-05-19T08:30:02.681Z,33.74
2023-05-19T08:32:31.246Z,33.49
2023-05-19T08:34:58.719Z,34.62
2023-05-19T08:37:26.153Z,33.63
2023-05-19T08:39:53.556Z,33.67
2023-05-19T08:42:20.852Z,33.42
2023-05-19T08:44:48.251Z,34.28
2023-05-19T08:47:15.563Z,34.24
2023-05-19T08:49:47.067Z,34.59
2023-05-19T08:52:14.481Z,33.25
2023-05-19T08:54:45.937Z,33.74
2023-05-19T08:57:13.581Z,34.69
2023-05-19T08:59:41.561Z,32.92
2023-05-19T09:02:09.199Z,32.74
2023-05-19T09:04:37.127Z,32.23
2023-05-19T09:07:04.812Z,32.00
2023-05-19T09:09:33.116Z,30.68
2023-05-19T09:12:01.014Z,31.61
2023-05-19T09:14:29.366Z,31.67
2023-05-19T09:16:56.938Z,31.34
2023-05-19T09:19:24.490Z,30.67
2023-05-19T09:22:05.569Z,30.80
2023-05-19T09:24:34.203Z,30.92
2023-05-19T09:27:02.298Z,30.37
2023-05-19T09:29:29.916Z,30.33
2023-05-19T09:32:01.602Z,30.66
2023-05-19T09:34:29.492Z,30.93
2023-05-19T09:36:58.051Z,29.84
2023-05-19T09:39:25.980Z,31.01
2023-05-19T09:41:54.437Z,31.05
2023-05-19T09:44:29.805Z,30.63
2023-05-19T09:46:58.573Z,30.27
2023-05-19T09:49:29.733Z,30.98
2023-05-19T09:51:58.076Z,31.83
2023-05-19T09:54:27.553Z,31.43
2023-05-19T09:57:01.510Z,31.26
2023-05-19T09:59:32.308Z,30.91
2023-05-19T10:02:01.346Z,30.75
2023-05-19T10:04:29.802Z,30.02
2023-05-19T10:06:59.928Z,29.93
2023-05-19T10:09:29.077Z,28.33
2023-05-19T10:11:57.448Z,29.78
2023-05-19T10:14:26.014Z,29.50
2023-05-19T10:16:55.100Z,29.16
2023-05-19T10:19:27.671Z,28.26
2023-05-19T10:21:55.912Z,25.90
2023-05-19T10:24:23.370Z,26.23
2023-05-19T10:26:55.356Z,26.70
2023-05-19T10:29:28.288Z,27.15
2023-05-19T10:31:56.369Z,27.62
2023-05-19T10:34:50.396Z,26.23
2023-05-19T10:37:47.140Z,25.77
2023-05-19T10:40:33.960Z,26.04
2023-05-19T10:43:20.206Z,25.44
2023-05-19T10:45:54.526Z,26.35
2023-05-19T10:48:23.352Z,26.71
2023-05-19T10:50:55.122Z,26.65
2023-05-19T10:53:23.042Z,26.60
2023-05-19T10:55:56.183Z,27.25
2023-05-19T10:58:46.543Z,28.04
2023-05-19T11:01:14.614Z,28.18
2023-05-19T11:04:13.964Z,28.65
2023-05-19T11:06:41.920Z,28.20
2023-05-19T11:09:16.723Z,29.05
2023-05-19T11:11:48.156Z,28.83
2023-05-19T11:14:17.842Z,28.88
2023-05-19T11:16:49.200Z,28.78
2023-05-19T11:19:33.305Z,28.43
2023-05-19T11:22:11.430Z,28.62
2023-05-19T11:24:48.045Z,29.11
2023-05-19T11:27:25.635Z,27.34
2023-05-19T11:29:53.623Z,26.79
2023-05-19T11:32:22.401Z,28.33
2023-05-19T11:34:50.442Z,28.40
2023-05-19T11:37:18.010Z,27.32
2023-05-19T11:39:46.191Z,27.14
2023-05-19T11:42:13.887Z,26.73
2023-05-19T11:44:41.601Z,27.70
2023-05-19T11:47:09.306Z,26.45
2023-05-19T11:49:37.924Z,26.87
2023-05-19T11:52:05.912Z,26.83
2023-05-19T11:54:36.614Z,27.38
2023-05-19T11:57:04.391Z,27.28
2023-05-19T11:59:36.450Z,27.47
2023-05-19T12:02:15.285Z,27.56
2023-05-19T12:04:43.423Z,27.49
2023-05-19T12:07:12.404Z,28.21
2023-05-19T12:09:40.199Z,28.16
2023-05-19T12:12:08.071Z,26.35
2023-05-19T12:14:36.095Z,27.28
2023-05-19T12:17:13.827Z,27.05
2023-05-19T12:19:43.013Z,26.21
2023-05-19T12:22:10.615Z,26.25
2023-05-19T12:24:38.326Z,25.25
2023-05-19T12:27:10.045Z,25.51
2023-05-19T12:29:38.549Z,25.11
2023-05-19T12:32:09.495Z,25.89
2023-05-19T12:34:38.337Z,26.12
2023-05-19T12:37:06.073Z,27.06
2023-05-19T12:39:34.009Z,26.92
2023-05-19T12:42:03.354Z,26.41
2023-05-19T12:44:33.614Z,24.27
2023-05-19T12:47:01.945Z,26.07
2023-05-19T12:49:30.024Z,26.07
2023-05-19T12:51:59.547Z,26.73
2023-05-19T12:54:28.827Z,27.44
2023-05-19T12:56:57.802Z,26.33
2023-05-19T12:59:37.466Z,28.38
2023-05-19T13:02:06.718Z,26.30
2023-05-19T13:04:36.203Z,26.34
2023-05-19T13:07:04.758Z,25.40
2023-05-19T13:09:35.418Z,23.87
2023-05-19T13:12:04.853Z,24.99
2023-05-19T13:14:33.322Z,24.98
2023-05-19T13:17:02.163Z,26.10
2023-05-19T13:19:30.127Z,26.57
2023-05-19T13:21:58.806Z,27.25
2023-05-19T13:24:27.556Z,27.90
2023-05-19T13:26:56.004Z,28.59
2023-05-19T13:29:23.698Z,28.24
2023-05-19T13:31:51.605Z,28.11
2023-05-19T13:34:19.818Z,28.73
2023-05-19T13:36:48.977Z,29.08
2023-05-19T13:39:16.510Z,28.68
2023-05-19T13:41:44.056Z,28.77
2023-05-19T13:44:11.822Z,29.12
2023-05-19T13:46:45.187Z,28.50
2023-05-19T13:49:13.484Z,29.33
2023-05-19T13:51:42.904Z,29.99
2023-05-19T13:54:10.598Z,29.54
2023-05-19T13:56:38.177Z,29.67
2023-05-19T13:59:05.769Z,30.43
2023-05-19T14:01:33.460Z,30.32
2023-05-19T14:04:01.356Z,30.48
2023-05-19T14:06:29.277Z,30.38
2023-05-19T14:08:56.782Z,29.99
2023-05-19T14:11:24.676Z,30.43
2023-05-19T14:13:53.099Z,31.13
2023-05-19T14:16:22.223Z,30.98
2023-05-19T14:18:50.155Z,30.45
2023-05-19T14:21:17.982Z,30.95
2023-05-19T14:23:45.546Z,29.98
2023-05-19T14:26:13.413Z,30.44
2023-05-19T14:28:41.000Z,30.15
2023-05-19T14:31:15.008Z,30.71
2023-05-19T14:33:44.166Z,29.66
2023-05-19T14:36:11.674Z,29.57
2023-05-19T14:38:39.184Z,29.73
2023-05-19T14:41:07.158Z,29.76
2023-05-19T14:43:34.772Z,29.50
2023-05-19T14:46:04.542Z,28.69
2023-05-19T14:48:32.549Z,28.21
2023-05-19T14:51:00.205Z,27.86
2023-05-19T14:53:27.877Z,28.80
2023-05-19T14:55:55.457Z,27.68
2023-05-19T14:58:29.030Z,28.97
2023-05-19T15:01:00.154Z,28.09
2023-05-19T15:03:27.918Z,29.03
2023-05-19T15:05:55.675Z,28.79
2023-05-19T15:08:23.599Z,27.69
2023-05-19T15:10:51.808Z,28.77
2023-05-19T15:13:19.483Z,28.19
2023-05-19T15:15:47.259Z,29.28
2023-05-19T15:18:18.767Z,29.28
2023-05-19T15:20:46.642Z,29.18
2023-05-19T15:23:14.183Z,29.45
2023-05-19T15:25:41.669Z,29.29
2023-05-19T15:28:10.044Z,28.63
2023-05-19T15:30:38.196Z,28.12
2023-05-19T15:33:06.013Z,29.16
2023-05-19T15:35:33.794Z,28.32
2023-05-19T15:38:06.117Z,28.25
2023-05-19T15:40:34.112Z,28.06
2023-05-19T15:43:02.244Z,28.21
2023-05-19T15:45:30.040Z,28.28
2023-05-19T15:47:57.599Z,28.40
2023-05-19T15:50:26.494Z,28.41
2023-05-19T15:52:54.226Z,28.19
2023-05-19T15:55:21.756Z,28.33
2023-05-19T15:57:49.464Z,28.16
2023-05-19T16:00:17.054Z,28.46
2023-05-19T16:02:45.583Z,28.89
2023-05-19T16:05:13.584Z,28.05
2023-05-19T16:07:42.300Z,28.46
2023-05-19T16:10:10.031Z,29.08
2023-05-19T16:12:37.881Z,28.72
2023-05-19T16:15:05.908Z,28.96
2023-05-19T16:17:34.776Z,29.42
2023-05-19T16:20:02.399Z,29.11
2023-05-19T16:22:30.654Z,29.55
2023-05-19T16:24:58.158Z,29.27
2023-05-19T16:27:25.931Z,29.99
2023-05-19T16:29:53.478Z,30.05
2023-05-19T16:32:21.109Z,30.26
2023-05-19T16:34:48.974Z,30.58
2023-05-19T16:37:16.516Z,30.13
2023-05-19T16:39:44.210Z,30.33
2023-05-19T16:42:11.936Z,30.32
2023-05-19T16:44:39.442Z,30.92
2023-05-19T16:47:06.964Z,31.53
2023-05-19T16:49:34.918Z,31.14
2023-05-19T16:52:02.564Z,32.11
2023-05-19T16:54:30.212Z,31.88
2023-05-19T16:56:57.911Z,31.70
2023-05-19T16:59:25.613Z,31.64
2023-05-19T17:01:53.663Z,31.80
2023-05-19T17:04:21.277Z,31.75
2023-05-19T17:06:48.827Z,32.02
2023-05-19T17:09:16.301Z,32.17
2023-05-19T17:11:44.322Z,32.97
2023-05-19T17:14:11.858Z,33.37
2023-05-19T17:16:39.526Z,33.62
2023-05-19T17:19:07.137Z,33.79
2023-05-19T17:21:34.878Z,33.40
2023-05-19T17:24:02.611Z,33.87
2023-05-19T17:26:31.038Z,34.25
2023-05-19T17:29:00.169Z,34.59
2023-05-19T17:31:27.763Z,35.01
2023-05-19T17:33:55.604Z,35.17
2023-05-19T17:36:23.176Z,35.14
2023-05-19T17:38:50.911Z,35.23
2023-05-19T17:41:18.577Z,35.45
2023-05-19T17:43:46.071Z,35.62
2023-05-19T17:46:13.620Z,35.69
2023-05-19T17:48:41.384Z,35.28
2023-05-19T17:51:09.107Z,35.83
2023-05-19T17:53:37.468Z,36.04
2023-05-19T17:56:07.398Z,36.09
2023-05-19T17:58:36.188Z,36.29
2023-05-19T18:01:04.061Z,36.34
2023-05-19T18:03:32.173Z,36.45
2023-05-19T18:05:59.906Z,36.35
2023-05-19T18:08:27.549Z,36.68
2023-05-19T18:10:55.149Z,36.78
2023-05-19T18:13:23.730Z,36.96
2023-05-19T18:15:52.803Z,36.82
2023-05-19T18:18:20.846Z,37.00
2023-05-19T18:20:48.419Z,36.95
2023-05-19T18:23:16.301Z,37.48
2023-05-19T18:25:50.155Z,37.47
2023-05-19T18:28:17.680Z,37.82
2023-05-19T18:30:45.597Z,38.08
2023-05-19T18:33:13.556Z,38.07
2023-05-19T18:35:41.145Z,38.28
2023-05-19T18:38:08.697Z,38.87
2023-05-19T18:40:36.375Z,38.85
2023-05-19T18:43:04.080Z,39.01
2023-05-19T18:45:31.690Z,39.22
2023-05-19T18:47:59.485Z,39.21
2023-05-19T18:50:27.018Z,39.39
2023-05-19T18:52:54.889Z,39.83
2023-05-19T18:55:22.909Z,40.18
2023-05-19T18:57:51.465Z,40.04
2023-05-19T19:00:19.300Z,40.49
2023-05-19T19:02:47.180Z,40.58
2023-05-19T19:05:14.814Z,40.71
2023-05-19T19:07:44.820Z,40.91
2023-05-19T19:10:12.470Z,41.83
2023-05-19T19:12:40.373Z,41.65
2023-05-19T19:15:08.459Z,41.35
2023-05-19T19:17:36.551Z,42.17
2023-05-19T19:20:04.343Z,41.79
2023-05-19T19:22:32.452Z,42.07
2023-05-19T19:25:00.037Z,42.42
2023-05-19T19:27:31.065Z,42.16
2023-05-19T19:29:58.883Z,42.15
2023-05-19T19:32:26.515Z,42.58
2023-05-19T19:34:54.309Z,42.77
2023-05-19T19:37:21.894Z,43.11
2023-05-19T19:39:49.611Z,43.42
2023-05-19T19:42:17.314Z,43.03
2023-05-19T19:44:44.997Z,42.84
2023-05-19T19:47:12.976Z,43.26
2023-05-19T19:49:40.722Z,43.20
2023-05-19T19:52:08.431Z,43.07
2023-05-19T19:54:36.761Z,43.10
2023-05-19T19:57:04.514Z,43.36
2023-05-19T19:59:32.598Z,43.07
2023-05-19T20:02:01.398Z,43.66
2023-05-19T20:04:29.636Z,43.74
2023-05-19T20:06:57.217Z,44.08
2023-05-19T20:09:24.889Z,44.07
2023-05-19T20:11:52.463Z,44.29
2023-05-19T20:14:20.176Z,44.23
2023-05-19T20:16:47.931Z,44.64
2023-05-19T20:19:15.819Z,44.70
2023-05-19T20:21:43.506Z,44.67
2023-05-19T20:24:11.480Z,45.09
2023-05-19T20:26:39.059Z,45.27
2023-05-19T20:29:06.798Z,45.27
2023-05-19T20:31:34.602Z,44.95
2023-05-19T20:34:02.407Z,44.81
2023-05-19T20:36:30.276Z,45.19
2023-05-19T20:38:58.470Z,44.97
2023-05-19T20:41:26.049Z,44.64
2023-05-19T20:43:55.091Z,44.87
2023-05-19T20:46:22.930Z,44.81
2023-05-19T20:48:50.544Z,44.90
2023-05-19T20:51:18.083Z,44.80
2023-05-19T20:53:45.942Z,44.40
2023-05-19T20:56:14.049Z,44.66
2023-05-19T20:58:41.754Z,44.85
2023-05-19T21:01:09.367Z,44.81
2023-05-19T21:03:37.059Z,45.32
2023-05-19T21:06:04.789Z,44.92
2023-05-19T21:08:33.369Z,45.59
2023-05-19T21:11:00.974Z,45.37
2023-05-19T21:13:29.206Z,45.50
2023-05-19T21:15:57.510Z,45.07
2023-05-19T21:18:25.644Z,44.89
2023-05-19T21:20:53.339Z,44.87
2023-05-19T21:23:20.896Z,44.77
2023-05-19T21:25:50.080Z,44.48
2023-05-19T21:28:18.042Z,44.81
2023-05-19T21:30:48.349Z,44.57
2023-05-19T21:33:16.126Z,44.65
2023-05-19T21:35:45.420Z,44.94
2023-05-19T21:38:23.513Z,44.71
2023-05-19T21:40:52.648Z,44.88
2023-05-19T21:43:20.285Z,44.62
2023-05-19T21:45:48.022Z,44.82
2023-05-19T21:48:15.660Z,44.57
2023-05-19T21:50:43.252Z,44.67
2023-05-19T21:53:10.694Z,44.58
2023-05-19T21:55:39.289Z,44.55
2023-05-19T21:58:07.213Z,44.65
2023-05-19T22:00:36.763Z,44.63
2023-05-19T22:03:04.930Z,44.67
2023-05-19T22:05:35.448Z,44.66
2023-05-19T22:08:03.701Z,45.09
2023-05-19T22:10:32.037Z,44.98
2023-05-19T22:13:00.062Z,45.06
2023-05-19T22:15:27.614Z,45.13
2023-05-19T22:17:55.156Z,45.21
2023-05-19T22:20:22.600Z,45.43
2023-05-19T22:22:50.160Z,45.44
2023-05-19T22:25:17.625Z,45.74
2023-05-19T22:27:45.287Z,45.90
2023-05-19T22:30:12.692Z,45.61
2023-05-19T22:32:40.137Z,46.17
2023-05-19T22:35:08.938Z,45.93
2023-05-19T22:37:36.577Z,46.40
2023-05-19T22:40:04.488Z,46.49
2023-05-19T22:42:32.259Z,46.33
2023-05-19T22:44:59.698Z,46.65
2023-05-19T22:47:27.238Z,46.81
2023-05-19T22:49:55.618Z,46.68
2023-05-19T22:52:24.537Z,46.92
2023-05-19T22:54:51.971Z,47.46
2023-05-19T22:57:19.518Z,47.26
2023-05-19T22:59:46.966Z,47.60
2023-05-19T23:02:14.348Z,47.59
2023-05-19T23:04:41.770Z,47.52
2023-05-19T23:07:09.155Z,47.93
2023-05-19T23:09:36.745Z,48.20
2023-05-19T23:12:04.420Z,48.21
2023-05-19T23:14:32.321Z,48.64
2023-05-19T23:16:59.778Z,48.77
2023-05-19T23:19:28.548Z,48.75
2023-05-19T23:21:56.080Z,49.18
2023-05-19T23:24:23.519Z,49.32
2023-05-19T23:26:51.137Z,49.90
2023-05-19T23:29:18.677Z,50.19
2023-05-19T23:31:46.719Z,50.16
2023-05-19T23:34:14.202Z,49.91
2023-05-19T23:36:41.810Z,50.12
2023-05-19T23:39:09.376Z,50.08
2023-05-19T23:41:37.780Z,50.50
2023-05-19T23:44:05.420Z,50.74
2023-05-19T23:46:33.433Z,51.25
2023-05-19T23:49:01.032Z,51.39
2023-05-19T23:51:28.421Z,51.94
2023-05-19T23:53:55.842Z,51.98
2023-05-19T23:56:23.232Z,52.09
2023-05-19T23:58:50.800Z,52.30
